createdAt,value
2022-10-10T00:01:47.969Z,25.40
2022-10-10T00:04:17.138Z,27.20
2022-10-10T00:06:46.108Z,27.53
2022-10-10T00:09:15.097Z,25.13
2022-10-10T00:11:44.179Z,25.30
2022-10-10T00:14:13.325Z,25.50
2022-10-10T00:16:43.755Z,24.47
2022-10-10T00:19:12.819Z,26.70
2022-10-10T00:21:42.005Z,25.10
2022-10-10T00:24:10.946Z,25.80
2022-10-10T00:26:39.976Z,25.23
2022-10-10T00:29:09.055Z,25.33
2022-10-10T00:31:38.093Z,24.33
2022-10-10T00:34:08.486Z,24.30
2022-10-10T00:36:37.806Z,24.83
2022-10-10T00:39:06.832Z,25.90
2022-10-10T00:41:35.895Z,24.47
2022-10-10T00:44:10.738Z,24.80
2022-10-10T00:46:40.255Z,23.87
2022-10-10T00:49:14.605Z,24.43
2022-10-10T00:51:45.147Z,24.83
2022-10-10T00:54:15.890Z,25.30
2022-10-10T00:56:49.598Z,23.03
2022-10-10T00:59:20.331Z,24.17
2022-10-10T01:01:49.526Z,23.10
2022-10-10T01:04:45.174Z,22.33
2022-10-10T01:07:17.398Z,22.60
2022-10-10T01:09:48.317Z,22.13
2022-10-10T01:12:23.085Z,21.03
2022-10-10T01:14:59.607Z,21.70
2022-10-10T01:17:34.649Z,21.77
2022-10-10T01:20:32.553Z,21.70
2022-10-10T01:23:17.915Z,20.57
2022-10-10T01:25:59.898Z,20.43
2022-10-10T01:28:40.314Z,21.33
2022-10-10T01:31:11.976Z,20.93
2022-10-10T01:33:51.780Z,20.03
2022-10-10T01:36:28.487Z,22.10
2022-10-10T01:39:03.879Z,21.60
2022-10-10T01:41:38.366Z,21.33
2022-10-10T01:44:08.779Z,21.60
2022-10-10T01:46:37.817Z,20.07
2022-10-10T01:49:06.791Z,20.83
2022-10-10T01:51:52.720Z,21.43
2022-10-10T01:54:37.185Z,22.17
2022-10-10T01:57:21.124Z,20.30
2022-10-10T02:00:03.635Z,21.27
2022-10-10T02:02:43.376Z,21.17
2022-10-10T02:05:20.998Z,21.07
2022-10-10T02:07:54.012Z,21.67
2022-10-10T02:10:27.965Z,20.53
2022-10-10T02:12:58.696Z,21.93
2022-10-10T02:15:36.345Z,22.90
2022-10-10T02:18:07.718Z,21.23
2022-10-10T02:20:37.540Z,21.73
2022-10-10T02:23:08.105Z,21.17
2022-10-10T02:25:40.638Z,21.10
2022-10-10T02:28:14.659Z,20.40
2022-10-10T02:30:46.859Z,21.93
2022-10-10T02:33:20.774Z,22.33
2022-10-10T02:35:52.400Z,20.27
2022-10-10T02:38:21.911Z,20.60
2022-10-10T02:40:51.597Z,21.70
2022-10-10T02:43:21.554Z,20.07
2022-10-10T02:45:52.071Z,20.87
2022-10-10T02:48:21.040Z,23.80
2022-10-10T02:50:50.290Z,22.10
2022-10-10T02:53:19.301Z,21.93
2022-10-10T02:55:48.291Z,22.23
2022-10-10T02:58:17.285Z,22.43
2022-10-10T03:00:46.383Z,25.23
2022-10-10T03:03:16.794Z,25.87
2022-10-10T03:05:47.010Z,26.83
2022-10-10T03:08:16.095Z,22.63
2022-10-10T03:10:56.350Z,23.93
2022-10-10T03:13:25.715Z,19.57
2022-10-10T03:15:55.472Z,20.10
2022-10-10T03:18:26.185Z,19.40
2022-10-10T03:20:56.258Z,20.37
2022-10-10T03:23:27.229Z,19.87
2022-10-10T03:25:56.264Z,20.13
2022-10-10T03:28:25.404Z,19.30
2022-10-10T03:30:54.355Z,20.23
2022-10-10T03:33:23.484Z,18.03
2022-10-10T03:35:53.895Z,18.73
2022-10-10T03:38:22.922Z,18.27
2022-10-10T03:40:52.006Z,17.50
2022-10-10T03:43:21.057Z,17.30
2022-10-10T03:45:50.078Z,17.33
2022-10-10T03:48:19.106Z,17.50
2022-10-10T03:50:48.124Z,16.43
2022-10-10T03:53:18.497Z,16.90
2022-10-10T03:55:47.509Z,16.40
2022-10-10T03:58:18.999Z,15.90
2022-10-10T04:00:56.450Z,14.97
2022-10-10T04:03:25.950Z,15.73
2022-10-10T04:05:55.194Z,15.30
2022-10-10T04:08:25.994Z,14.80
2022-10-10T04:10:56.397Z,15.63
2022-10-10T04:13:27.753Z,14.97
2022-10-10T04:15:58.299Z,15.20
2022-10-10T04:18:27.501Z,14.37
2022-10-10T04:20:56.616Z,15.10
2022-10-10T04:23:27.009Z,14.40
2022-10-10T04:25:56.399Z,14.37
2022-10-10T04:28:25.588Z,15.57
2022-10-10T04:30:56.442Z,15.20
2022-10-10T04:33:25.568Z,14.40
2022-10-10T04:35:54.714Z,15.53
2022-10-10T04:38:23.873Z,15.23
2022-10-10T04:40:54.558Z,15.37
2022-10-10T04:43:23.549Z,16.87
2022-10-10T04:45:52.713Z,16.17
2022-10-10T04:48:21.796Z,17.47
2022-10-10T04:50:53.748Z,15.07
2022-10-10T04:53:23.445Z,15.23
2022-10-10T04:55:54.090Z,15.50
2022-10-10T04:58:23.341Z,15.60
2022-10-10T05:00:56.709Z,15.10
2022-10-10T05:03:26.250Z,14.83
2022-10-10T05:05:55.661Z,15.97
2022-10-10T05:08:24.850Z,16.63
2022-10-10T05:10:55.683Z,15.80
2022-10-10T05:13:24.725Z,16.80
2022-10-10T05:15:54.301Z,16.47
2022-10-10T05:18:24.242Z,15.27
2022-10-10T05:20:58.639Z,16.23
2022-10-10T05:23:30.810Z,17.43
2022-10-10T05:26:02.162Z,16.20
2022-10-10T05:28:31.816Z,15.43
2022-10-10T05:31:01.862Z,16.07
2022-10-10T05:33:32.267Z,16.97
2022-10-10T05:36:07.151Z,16.97
2022-10-10T05:38:38.403Z,15.63
2022-10-10T05:41:10.024Z,15.97
2022-10-10T05:43:39.664Z,16.90
2022-10-10T05:46:08.964Z,16.07
2022-10-10T05:48:38.127Z,15.77
2022-10-10T05:51:08.936Z,17.37
2022-10-10T05:53:38.392Z,16.77
2022-10-10T05:56:10.211Z,16.53
2022-10-10T05:58:39.726Z,16.13
2022-10-10T06:01:11.806Z,18.27
2022-10-10T06:03:44.082Z,16.30
2022-10-10T06:06:13.771Z,16.40
2022-10-10T06:08:43.171Z,16.10
2022-10-10T06:11:16.246Z,17.30
2022-10-10T06:13:47.473Z,16.93
2022-10-10T06:16:17.137Z,67.97
2022-10-10T06:18:46.682Z,24.93
2022-10-10T06:21:16.211Z,16.47
2022-10-10T06:23:46.046Z,14.67
2022-10-10T06:26:17.484Z,13.67
2022-10-10T06:28:46.998Z,13.60
2022-10-10T06:31:16.886Z,14.73
2022-10-10T06:33:46.843Z,13.27
2022-10-10T06:36:17.166Z,13.13
2022-10-10T06:38:47.369Z,13.80
2022-10-10T06:41:18.012Z,14.40
2022-10-10T06:43:49.282Z,13.63
2022-10-10T06:46:19.388Z,13.50
2022-10-10T06:48:49.560Z,14.67
2022-10-10T06:51:19.961Z,13.40
2022-10-10T06:53:50.040Z,14.60
2022-10-10T06:56:27.421Z,14.80
2022-10-10T06:58:58.186Z,14.10
2022-10-10T07:01:32.306Z,14.10
2022-10-10T07:04:02.362Z,14.27
2022-10-10T07:06:34.868Z,14.50
2022-10-10T07:09:04.950Z,14.67
2022-10-10T07:11:36.010Z,14.67
2022-10-10T07:20:17.849Z,14.50
2022-10-10T07:22:54.040Z,14.47
2022-10-10T07:25:36.921Z,14.17
2022-10-10T07:29:23.024Z,13.80
2022-10-10T07:32:48.675Z,13.60
2022-10-10T07:35:19.122Z,13.27
2022-10-10T07:37:54.706Z,12.93
2022-10-10T07:40:34.011Z,12.87
2022-10-10T07:43:06.753Z,21.17
2022-10-10T07:45:55.508Z,21.83
2022-10-10T07:51:50.945Z,13.53
2022-10-10T07:54:20.408Z,14.30
2022-10-10T07:56:50.441Z,14.27
2022-10-10T07:59:20.052Z,14.27
2022-10-10T08:01:49.532Z,14.83
2022-10-10T08:04:21.242Z,15.00
2022-10-10T08:06:50.628Z,15.20
2022-10-10T08:09:20.880Z,16.03
2022-10-10T08:11:50.340Z,14.40
2022-10-10T08:14:20.196Z,15.73
2022-10-10T08:16:50.186Z,16.88
2022-10-10T08:19:21.871Z,15.30
2022-10-10T08:21:51.459Z,15.53
2022-10-10T08:24:21.314Z,13.90
2022-10-10T08:26:51.119Z,13.52
2022-10-10T08:29:20.800Z,13.48
2022-10-10T08:31:50.021Z,12.75
2022-10-10T08:34:20.530Z,12.55
2022-10-10T08:36:50.374Z,11.63
2022-10-10T08:39:19.948Z,11.80
2022-10-10T08:41:53.639Z,9.95
2022-10-10T08:44:34.759Z,10.77
2022-10-10T08:47:32.068Z,10.88
2022-10-10T08:57:41.449Z,7.13
2022-10-10T09:00:46.370Z,7.97
2022-10-10T09:03:48.720Z,8.07
2022-10-10T09:07:02.028Z,7.53
2022-10-10T09:13:17.467Z,6.53
2022-10-10T09:15:56.401Z,7.00
2022-10-10T09:18:43.600Z,6.47
2022-10-10T09:21:18.530Z,6.57
2022-10-10T09:23:57.117Z,7.47
2022-10-10T09:26:32.776Z,6.77
2022-10-10T09:29:12.942Z,7.00
2022-10-10T09:31:50.036Z,6.67
2022-10-10T09:34:27.658Z,6.27
2022-10-10T09:37:02.926Z,6.70
2022-10-10T09:39:45.475Z,10.13
2022-10-10T09:42:33.174Z,6.47
2022-10-10T09:45:05.236Z,5.80
2022-10-10T09:47:36.115Z,6.67
2022-10-10T09:50:07.332Z,6.20
2022-10-10T09:52:37.645Z,5.90
2022-10-10T09:55:23.884Z,5.80
2022-10-10T09:57:59.074Z,5.40
2022-10-10T10:00:36.159Z,5.00
2022-10-10T10:03:17.886Z,5.70
2022-10-10T10:05:56.606Z,6.67
2022-10-10T10:08:31.657Z,5.90
2022-10-10T10:11:02.786Z,5.43
2022-10-10T10:13:39.484Z,5.13
2022-10-10T10:16:12.514Z,5.27
2022-10-10T10:18:44.925Z,5.77
2022-10-10T10:21:19.915Z,5.13
2022-10-10T10:24:02.126Z,5.93
2022-10-10T10:26:45.636Z,5.60
2022-10-10T10:29:45.645Z,5.50
2022-10-10T10:32:23.477Z,5.83
2022-10-10T10:35:18.756Z,5.03
2022-10-10T10:38:09.095Z,5.20
2022-10-10T10:40:44.365Z,5.10
2022-10-10T10:43:42.448Z,5.43
2022-10-10T10:46:28.256Z,5.47
2022-10-10T10:49:09.159Z,4.70
2022-10-10T10:51:57.851Z,4.90
2022-10-10T10:54:45.380Z,5.10
2022-10-10T10:57:32.903Z,4.57
2022-10-10T11:00:33.762Z,4.43
2022-10-10T11:05:19.329Z,4.73
2022-10-10T11:07:24.639Z,4.80
2022-10-10T11:13:21.428Z,3.83
2022-10-10T11:18:54.628Z,3.80
2022-10-10T11:21:30.926Z,3.00
2022-10-10T11:24:08.595Z,2.80
2022-10-10T11:26:42.836Z,3.00
2022-10-10T11:29:18.118Z,2.73
2022-10-10T11:31:56.127Z,2.80
2022-10-10T11:34:31.888Z,2.80
2022-10-10T11:37:07.078Z,3.00
2022-10-10T11:39:44.045Z,3.37
2022-10-10T11:42:20.765Z,2.93
2022-10-10T11:44:56.774Z,3.20
2022-10-10T11:47:32.816Z,3.10
2022-10-10T11:50:11.511Z,3.10
2022-10-10T11:52:52.175Z,2.80
2022-10-10T11:55:28.205Z,3.07
2022-10-10T11:58:17.897Z,3.10
2022-10-10T12:00:55.554Z,3.57
2022-10-10T12:03:29.887Z,2.80
2022-10-10T12:06:06.677Z,3.00
2022-10-10T12:08:42.849Z,3.27
2022-10-10T12:11:21.486Z,2.53
2022-10-10T12:13:59.317Z,2.93
2022-10-10T12:16:36.376Z,4.87
2022-10-10T12:19:09.645Z,3.00
2022-10-10T12:21:58.116Z,2.80
2022-10-10T12:24:30.925Z,2.83
2022-10-10T12:27:45.155Z,2.70
2022-10-10T12:30:22.675Z,2.93
2022-10-10T12:32:55.966Z,2.77
2022-10-10T12:35:50.526Z,3.07
2022-10-10T12:38:24.593Z,2.80
2022-10-10T12:41:20.926Z,3.10
2022-10-10T12:44:14.515Z,2.83
2022-10-10T12:46:45.714Z,2.97
2022-10-10T12:49:22.115Z,2.97
2022-10-10T12:52:05.423Z,3.63
2022-10-10T12:54:41.475Z,3.00
2022-10-10T12:57:21.255Z,2.77
2022-10-10T12:59:57.518Z,3.23
2022-10-10T13:02:30.675Z,2.80
2022-10-10T13:05:05.086Z,3.20
2022-10-10T13:07:35.964Z,2.90
2022-10-10T13:10:18.436Z,2.70
2022-10-10T13:12:47.868Z,2.67
2022-10-10T13:15:23.963Z,2.50
2022-10-10T13:17:54.087Z,2.63
2022-10-10T13:20:39.553Z,2.40
2022-10-10T13:23:15.252Z,2.60
2022-10-10T13:25:48.594Z,2.33
2022-10-10T13:28:22.385Z,2.33
2022-10-10T13:30:55.485Z,2.50
2022-10-10T13:33:30.765Z,2.87
2022-10-10T13:36:08.776Z,2.10
2022-10-10T13:38:38.795Z,2.30
2022-10-10T13:41:09.165Z,2.23
2022-10-10T13:43:38.958Z,2.53
2022-10-10T13:46:23.165Z,2.37
2022-10-10T13:48:53.807Z,2.17
2022-10-10T13:51:43.235Z,2.50
2022-10-10T13:54:44.326Z,2.77
2022-10-10T13:57:17.726Z,2.50
2022-10-10T13:59:51.475Z,2.30
2022-10-10T14:02:25.705Z,2.37
2022-10-10T14:04:56.596Z,2.17
2022-10-10T14:07:29.645Z,2.27
2022-10-10T14:10:01.136Z,2.33
2022-10-10T14:12:35.715Z,2.40
2022-10-10T14:15:06.995Z,2.00
2022-10-10T14:17:39.007Z,1.80
2022-10-10T14:20:14.366Z,2.03
2022-10-10T14:22:44.137Z,2.50
2022-10-10T14:25:14.358Z,2.47
2022-10-10T14:27:44.405Z,1.93
2022-10-10T14:30:17.301Z,2.20
2022-10-10T14:32:48.195Z,1.97
2022-10-10T14:35:17.582Z,2.47
2022-10-10T14:37:47.715Z,2.43
2022-10-10T14:40:21.716Z,1.90
2022-10-10T14:42:52.526Z,3.00
2022-10-10T14:45:26.605Z,3.13
2022-10-10T14:47:58.839Z,2.83
2022-10-10T14:50:33.716Z,2.40
2022-10-10T14:53:04.444Z,2.07
2022-10-10T14:55:34.896Z,3.70
2022-10-10T14:58:04.767Z,3.13
2022-10-10T15:00:34.746Z,2.40
2022-10-10T15:03:05.677Z,3.77
2022-10-10T15:05:35.886Z,2.17
2022-10-10T15:08:06.914Z,2.40
2022-10-10T15:10:37.355Z,2.10
2022-10-10T15:13:07.426Z,2.40
2022-10-10T15:15:38.036Z,2.47
2022-10-10T15:18:32.123Z,2.83
2022-10-10T15:21:00.297Z,3.00
2022-10-10T15:23:30.496Z,3.73
2022-10-10T15:26:01.845Z,7.43
2022-10-10T15:28:31.144Z,3.93
2022-10-10T15:31:08.445Z,3.30
2022-10-10T15:33:42.956Z,3.57
2022-10-10T15:36:19.210Z,3.00
2022-10-10T15:38:49.197Z,3.23
2022-10-10T15:41:19.555Z,2.80
2022-10-10T15:43:52.411Z,3.00
2022-10-10T15:46:22.659Z,4.07
2022-10-10T15:48:53.649Z,3.33
2022-10-10T15:51:23.217Z,3.77
2022-10-10T15:53:52.737Z,3.60
2022-10-10T15:56:22.026Z,3.23
2022-10-10T15:58:56.566Z,3.40
2022-10-10T16:01:26.666Z,3.43
2022-10-10T16:04:00.937Z,3.90
2022-10-10T16:06:31.457Z,3.97
2022-10-10T16:09:26.743Z,4.07
2022-10-10T16:11:52.985Z,4.10
2022-10-10T16:14:23.189Z,13.87
2022-10-10T16:16:53.125Z,4.83
2022-10-10T16:19:24.189Z,4.43
2022-10-10T16:21:56.402Z,4.20
2022-10-10T16:24:25.745Z,5.20
2022-10-10T16:26:55.465Z,4.57
2022-10-10T16:29:26.087Z,4.50
2022-10-10T16:31:55.540Z,4.37
2022-10-10T16:34:26.297Z,4.47
2022-10-10T16:36:55.583Z,4.43
2022-10-10T16:39:25.823Z,4.43
2022-10-10T16:41:59.778Z,4.50
2022-10-10T16:44:30.556Z,5.23
2022-10-10T16:47:08.632Z,4.57
2022-10-10T16:49:41.077Z,4.70
2022-10-10T16:52:10.680Z,5.70
2022-10-10T16:54:40.240Z,5.87
2022-10-10T17:00:40.656Z,5.27
2022-10-10T17:03:10.984Z,5.47
2022-10-10T17:05:42.862Z,6.20
2022-10-10T17:08:12.822Z,6.17
2022-10-10T17:10:44.463Z,5.70
2022-10-10T17:13:13.852Z,5.83
2022-10-10T17:15:43.613Z,6.20
2022-10-10T17:18:12.994Z,6.40
2022-10-10T17:20:45.600Z,6.27
2022-10-10T17:23:15.906Z,6.43
2022-10-10T17:25:49.861Z,5.93
2022-10-10T17:28:25.915Z,6.30
2022-10-10T17:31:01.537Z,6.93
2022-10-10T17:33:32.692Z,6.57
2022-10-10T17:36:09.576Z,7.33
2022-10-10T17:38:40.522Z,7.17
2022-10-10T17:41:11.401Z,8.07
2022-10-10T17:43:44.602Z,7.50
2022-10-10T17:46:33.696Z,7.23
2022-10-10T17:49:04.604Z,7.23
2022-10-10T17:51:36.001Z,7.03
2022-10-10T17:54:06.975Z,7.60
2022-10-10T17:56:37.953Z,8.27
2022-10-10T17:59:07.970Z,7.90
2022-10-10T18:01:38.147Z,8.37
2022-10-10T18:04:11.782Z,8.27
2022-10-10T18:06:47.470Z,7.87
2022-10-10T18:09:18.304Z,8.47
2022-10-10T18:11:49.056Z,9.40
2022-10-10T18:14:20.133Z,8.93
2022-10-10T18:16:50.825Z,9.10
2022-10-10T18:19:21.597Z,9.00
2022-10-10T18:22:14.604Z,9.00
2022-10-10T18:24:52.508Z,9.33
2022-10-10T18:27:23.730Z,8.93
2022-10-10T18:29:54.613Z,8.63
2022-10-10T18:32:24.797Z,9.30
2022-10-10T18:34:54.540Z,8.50
2022-10-10T18:37:25.730Z,8.33
2022-10-10T18:39:55.599Z,8.70
2022-10-10T18:42:26.578Z,9.37
2022-10-10T18:44:56.256Z,8.93
2022-10-10T18:47:25.651Z,8.97
2022-10-10T18:49:55.187Z,8.27
2022-10-10T18:52:29.092Z,8.90
2022-10-10T18:54:58.999Z,9.03
2022-10-10T18:57:28.711Z,9.47
2022-10-10T19:00:00.851Z,9.20
2022-10-10T19:02:33.863Z,8.40
2022-10-10T19:05:03.312Z,8.87
2022-10-10T19:07:34.311Z,9.43
2022-10-10T19:10:04.903Z,8.77
2022-10-10T19:12:36.960Z,9.53
2022-10-10T19:15:06.868Z,9.40
2022-10-10T19:17:36.867Z,9.67
2022-10-10T19:20:07.640Z,10.33
2022-10-10T19:22:38.378Z,10.07
2022-10-10T19:25:08.524Z,10.13
2022-10-10T19:27:38.649Z,9.90
2022-10-10T19:30:09.311Z,10.13
2022-10-10T19:32:39.000Z,10.43
2022-10-10T19:35:09.260Z,10.90
2022-10-10T19:37:40.213Z,10.80
2022-10-10T19:40:10.104Z,10.20
2022-10-10T19:42:39.362Z,10.37
2022-10-10T19:45:09.579Z,12.23
2022-10-10T19:47:41.733Z,10.17
2022-10-10T19:50:11.190Z,10.27
2022-10-10T19:52:42.058Z,10.50
2022-10-10T19:55:11.888Z,10.63
2022-10-10T19:57:41.302Z,10.60
2022-10-10T20:00:13.522Z,9.87
2022-10-10T20:02:44.234Z,10.93
2022-10-10T20:05:13.601Z,9.50
2022-10-10T20:07:45.245Z,10.10
2022-10-10T20:10:14.972Z,10.40
2022-10-10T20:12:44.580Z,10.37
2022-10-10T20:15:14.080Z,9.70
2022-10-10T20:17:43.236Z,9.67
2022-10-10T20:20:12.625Z,10.70
2022-10-10T20:22:42.935Z,10.57
2022-10-10T20:25:13.919Z,10.10
2022-10-10T20:27:42.930Z,10.50
2022-10-10T20:30:12.862Z,9.83
2022-10-10T20:32:42.260Z,9.77
2022-10-10T20:35:12.505Z,10.70
2022-10-10T20:37:41.924Z,11.03
2022-10-10T20:40:13.260Z,11.23
2022-10-10T20:42:42.494Z,10.87
2022-10-10T20:45:11.661Z,10.97
2022-10-10T20:47:40.830Z,11.83
2022-10-10T20:50:10.540Z,11.60
2022-10-10T20:52:39.682Z,13.67
2022-10-10T20:55:09.813Z,10.90
2022-10-10T20:57:40.361Z,11.30
2022-10-10T21:00:10.871Z,11.37
2022-10-10T21:02:40.133Z,11.37
2022-10-10T21:05:09.751Z,11.47
2022-10-10T21:07:39.032Z,12.17
2022-10-10T21:10:09.272Z,10.67
2022-10-10T21:12:39.815Z,12.00
2022-10-10T21:15:09.519Z,11.47
2022-10-10T21:17:39.094Z,12.00
2022-10-10T21:20:09.019Z,12.03
2022-10-10T21:22:38.266Z,12.20
2022-10-10T21:25:09.041Z,11.83
2022-10-10T21:27:39.745Z,11.73
2022-10-10T21:30:10.049Z,11.33
2022-10-10T21:32:39.077Z,12.63
2022-10-10T21:35:08.841Z,12.30
2022-10-10T21:37:38.140Z,12.17
2022-10-10T21:40:08.534Z,12.50
2022-10-10T21:42:37.658Z,12.23
2022-10-10T21:45:10.057Z,11.63
2022-10-10T21:47:39.115Z,12.37
2022-10-10T21:50:09.801Z,11.20
2022-10-10T21:52:39.066Z,12.23
2022-10-10T21:55:08.645Z,11.73
2022-10-10T21:57:37.809Z,12.07
2022-10-10T22:00:10.304Z,11.87
2022-10-10T22:02:40.877Z,11.63
2022-10-10T22:05:12.028Z,11.27
2022-10-10T22:07:42.311Z,10.97
2022-10-10T22:10:14.844Z,12.23
2022-10-10T22:12:44.198Z,11.53
2022-10-10T22:15:15.475Z,11.30
2022-10-10T22:17:44.750Z,11.23
2022-10-10T22:20:14.943Z,10.70
2022-10-10T22:22:45.395Z,11.17
2022-10-10T22:25:17.640Z,12.40
2022-10-10T22:27:46.922Z,11.10
2022-10-10T22:30:17.550Z,11.20
2022-10-10T22:32:46.645Z,12.37
2022-10-10T22:35:15.634Z,10.90
2022-10-10T22:37:44.670Z,11.67
2022-10-10T22:40:14.259Z,11.07
2022-10-10T22:42:43.306Z,10.07
2022-10-10T22:45:12.566Z,10.57
2022-10-10T22:47:43.298Z,10.43
2022-10-10T22:50:13.315Z,10.50
2022-10-10T22:52:42.879Z,15.07
2022-10-10T22:55:17.386Z,10.93
2022-10-10T22:57:47.824Z,11.00
2022-10-10T23:00:18.204Z,9.43
2022-10-10T23:02:48.835Z,10.50
2022-10-10T23:05:17.979Z,10.13
2022-10-10T23:07:47.044Z,9.93
2022-10-10T23:10:15.978Z,10.03
2022-10-10T23:12:45.012Z,10.40
2022-10-10T23:15:14.042Z,9.73
2022-10-10T23:17:43.021Z,10.53
2022-10-10T23:20:13.812Z,9.80
2022-10-10T23:22:42.877Z,9.83
2022-10-10T23:25:12.012Z,9.10
2022-10-10T23:27:41.107Z,9.30
2022-10-10T23:30:10.972Z,9.70
2022-10-10T23:32:40.020Z,9.07
2022-10-10T23:35:23.239Z,9.00
2022-10-10T23:38:07.148Z,9.07
2022-10-10T23:40:47.732Z,9.10
2022-10-10T23:43:52.060Z,8.77
2022-10-10T23:46:35.197Z,8.77
2022-10-10T23:49:04.282Z,8.37
2022-10-10T23:51:33.535Z,9.60
2022-10-10T23:54:17.983Z,8.43
2022-10-10T23:57:00.084Z,8.30
2022-10-10T23:59:43.246Z,8.97
